Time;durP1;ratioP1;P1;durP2;ratioP2;P2;SDS_P1;SDS_P2;PMS_P1;PMS_P2;Temp;Humidity;BMP_temperature;BMP_pressure;BME280_temperature;BME280_humidity;BME280_pressure;Samples;Min_cycle;Max_cycle;Signal;HPM_P1;HPM_P2
2022/04/02 00:00:57;;;;;;;7.40;2.10;;;3.70;69.20;;;;;;5076373;28;20036;-82
2022/04/02 00:03:23;;;;;;;5.37;1.30;;;3.70;69.20;;;;;;5076176;28;20472;-80
2022/04/02 00:05:49;;;;;;;3.50;1.27;;;3.70;69.30;;;;;;5075967;28;20032;-79
2022/04/02 00:08:15;;;;;;;3.23;1.20;;;3.70;69.30;;;;;;5057952;28;20128;-79
2022/04/02 00:10:41;;;;;;;3.87;1.40;;;3.70;69.30;;;;;;5057915;28;20099;-80
2022/04/02 00:13:06;;;;;;;3.63;1.40;;;3.70;69.40;;;;;;5075867;28;20469;-80
2022/04/02 00:15:32;;;;;;;3.83;1.53;;;3.70;69.40;;;;;;5075812;28;20032;-79
2022/04/02 00:17:58;;;;;;;6.67;1.90;;;3.70;69.40;;;;;;5057640;28;20122;-83
2022/04/02 00:20:23;;;;;;;3.20;1.50;;;3.70;69.50;;;;;;5041037;28;20040;-79
2022/04/02 00:25:33;;;;;;;3.17;1.08;;;3.70;69.30;;;;;;5075604;28;20063;-80
2022/04/02 00:27:59;;;;;;;5.27;1.30;;;3.70;69.50;;;;;;5075457;28;20033;-80
2022/04/02 00:30:24;;;;;;;4.00;1.23;;;3.70;69.40;;;;;;5057682;28;20024;-81
2022/04/02 00:32:50;;;;;;;4.07;1.47;;;3.70;69.30;;;;;;5075371;28;20029;-81
2022/04/02 00:35:16;;;;;;;6.77;1.30;;;3.60;69.30;;;;;;5057475;28;20033;-80
2022/04/02 00:37:41;;;;;;;4.60;1.40;;;3.60;69.40;;;;;;5057246;28;20504;-80
2022/04/02 00:40:08;;;;;;;4.27;1.43;;;3.60;69.60;;;;;;5075414;28;20025;-80
2022/04/02 00:42:33;;;;;;;2.97;1.30;;;3.60;69.70;;;;;;5040413;28;20393;-80
2022/04/02 00:44:59;;;;;;;4.77;1.57;;;3.60;69.70;;;;;;5057227;28;20032;-80
2022/04/02 00:47:25;;;;;;;3.60;1.33;;;3.60;69.80;;;;;;5075205;28;20028;-80
2022/04/02 00:49:54;;;;;;;6.43;1.60;;;3.60;69.70;;;;;;5075376;28;20029;-80
2022/04/02 00:52:21;;;;;;;5.20;1.63;;;3.50;69.70;;;;;;5041477;28;20079;-80
2022/04/02 00:54:49;;;;;;;3.67;1.43;;;3.60;69.90;;;;;;5057085;28;20128;-80
2022/04/02 00:57:15;;;;;;;4.03;1.37;;;3.60;70.00;;;;;;5074925;28;20028;-82
2022/04/02 00:59:41;;;;;;;3.37;1.43;;;3.60;70.00;;;;;;5074921;28;20032;-81
2022/04/02 01:02:06;;;;;;;8.77;1.63;;;3.50;69.80;;;;;;5074810;28;20090;-83
2022/04/02 01:04:32;;;;;;;4.10;1.33;;;3.50;69.80;;;;;;5056694;28;20033;-81
2022/04/02 01:06:59;;;;;;;4.20;1.40;;;3.50;69.90;;;;;;5056836;28;20032;-81
2022/04/02 01:09:25;;;;;;;6.30;1.90;;;3.50;69.90;;;;;;5056924;28;20074;-83
2022/04/02 01:11:52;;;;;;;4.13;1.30;;;3.50;70.60;;;;;;5075077;28;20024;-81
2022/04/02 01:14:18;;;;;;;4.00;1.60;;;3.50;70.10;;;;;;5056690;28;20191;-81
2022/04/02 01:16:44;;;;;;;4.77;1.47;;;3.50;70.20;;;;;;5056678;28;20158;-79
2022/04/02 01:19:11;;;;;;;5.40;1.57;;;3.50;70.50;;;;;;5074580;28;20135;-79
2022/04/02 01:21:37;;;;;;;4.00;1.67;;;3.50;70.30;;;;;;5056639;28;20116;-79
2022/04/02 01:24:03;;;;;;;4.37;1.50;;;3.50;70.20;;;;;;5074336;28;20025;-80
2022/04/02 01:26:29;;;;;;;3.00;1.17;;;3.50;70.50;;;;;;5056351;28;20397;-84
2022/04/02 01:28:59;;;;;;;8.13;1.50;;;3.50;70.30;;;;;;5056354;28;20021;-80
2022/04/02 01:31:26;;;;;;;3.87;1.30;;;3.50;71.00;;;;;;5056239;28;20034;-79
2022/04/02 01:33:53;;;;;;;4.67;1.60;;;3.50;70.70;;;;;;5056182;28;20025;-80
2022/04/02 01:36:19;;;;;;;3.97;1.37;;;3.50;70.40;;;;;;5074106;28;20024;-79
2022/04/02 01:38:46;;;;;;;4.03;1.40;;;3.50;70.30;;;;;;5074183;28;20108;-79
2022/04/02 01:41:13;;;;;;;4.50;1.87;;;3.50;70.40;;;;;;5073871;28;20484;-78
2022/04/02 01:43:38;;;;;;;4.13;1.23;;;3.40;70.50;;;;;;5074011;28;20051;-79
2022/04/02 01:46:04;;;;;;;6.73;1.30;;;3.50;70.50;;;;;;5056099;28;20472;-79
2022/04/02 01:48:31;;;;;;;4.10;1.30;;;3.50;70.40;;;;;;5056042;28;20024;-80
2022/04/02 01:50:56;;;;;;;7.67;1.50;;;3.50;70.40;;;;;;5039080;28;20059;-79
2022/04/02 01:53:24;;;;;;;3.57;1.17;;;3.40;70.30;;;;;;5073944;28;20435;-79
2022/04/02 01:55:50;;;;;;;5.90;1.50;;;3.40;70.40;;;;;;5055803;28;20115;-80
2022/04/02 01:58:16;;;;;;;4.87;1.27;;;3.40;70.40;;;;;;5073730;28;20067;-79
2022/04/02 02:00:42;;;;;;;4.87;1.50;;;3.40;70.40;;;;;;5039208;28;20056;-79
2022/04/02 02:03:08;;;;;;;4.67;1.20;;;3.40;70.40;;;;;;5073686;28;20039;-80
2022/04/02 02:05:35;;;;;;;4.57;1.30;;;3.40;70.50;;;;;;5073372;28;20384;-81
2022/04/02 02:08:01;;;;;;;6.70;1.80;;;3.40;70.60;;;;;;5056243;28;20029;-79
2022/04/02 02:10:27;;;;;;;5.20;1.33;;;3.40;70.60;;;;;;5055581;28;20031;-74
2022/04/02 02:12:52;;;;;;;5.17;1.50;;;3.40;70.80;;;;;;5073514;28;20103;-73
2022/04/02 02:15:18;;;;;;;4.37;1.33;;;3.30;70.80;;;;;;5056113;28;20112;-75
2022/04/02 02:17:47;;;;;;;4.50;1.30;;;3.30;70.80;;;;;;5055479;28;20056;-75
2022/04/02 02:20:15;;;;;;;3.73;1.33;;;3.30;70.90;;;;;;5055594;28;20064;-75
2022/04/02 02:22:42;;;;;;;8.00;1.63;;;3.30;70.90;;;;;;5055678;28;20036;-75
2022/04/02 02:25:11;;;;;;;5.13;1.30;;;3.40;71.10;;;;;;5073658;28;20031;-75
2022/04/02 02:27:37;;;;;;;3.70;1.37;;;3.30;71.20;;;;;;5055667;28;20048;-75
2022/04/02 02:30:07;;;;;;;6.13;1.40;;;3.30;71.10;;;;;;5073578;28;20025;-75
2022/04/02 02:32:36;;;;;;;4.53;1.30;;;3.30;71.00;;;;;;5039056;28;20031;-75
2022/04/02 02:38:03;;;;;;;5.67;1.57;;;3.20;71.10;;;;;;5073486;28;20558;-80
2022/04/02 02:40:28;;;;;;;5.20;1.23;;;3.20;71.20;;;;;;5073327;28;20099;-80
2022/04/02 02:42:54;;;;;;;3.13;1.10;;;3.20;71.30;;;;;;5073106;28;20438;-80
2022/04/02 02:45:19;;;;;;;4.00;1.40;;;3.20;71.40;;;;;;5073201;28;20033;-80
2022/04/02 02:47:45;;;;;;;2.90;1.13;;;3.20;71.40;;;;;;5022178;28;20423;-80
2022/04/02 02:50:11;;;;;;;2.40;1.23;;;3.20;71.40;;;;;;5073164;28;20031;-80
2022/04/02 02:52:36;;;;;;;3.47;1.27;;;3.20;71.50;;;;;;5055069;28;20072;-80
2022/04/02 02:55:02;;;;;;;4.67;1.50;;;3.20;71.40;;;;;;5055368;28;20492;-80
2022/04/02 02:57:28;;;;;;;2.90;1.10;;;3.10;71.40;;;;;;5022122;28;20040;-79
2022/04/02 02:59:54;;;;;;;4.13;1.33;;;3.20;71.70;;;;;;5073137;28;20385;-80
2022/04/02 03:02:21;;;;;;;4.97;1.23;;;3.10;71.80;;;;;;5055074;28;20036;-80
2022/04/02 03:04:47;;;;;;;5.80;1.30;;;3.10;71.60;;;;;;5072952;28;20112;-79
2022/04/02 03:07:12;;;;;;;4.43;1.27;;;3.10;71.70;;;;;;5073118;28;20060;-78
2022/04/02 03:09:38;;;;;;;2.27;0.93;;;3.10;71.80;;;;;;5054961;28;20028;-79
2022/04/02 03:12:04;;;;;;;5.60;1.33;;;3.10;71.80;;;;;;5038464;28;20029;-79
2022/04/02 03:14:30;;;;;;;5.07;1.40;;;3.00;71.80;;;;;;5072897;28;20540;-79
2022/04/02 03:16:55;;;;;;;3.87;1.43;;;3.00;71.80;;;;;;5055069;28;20033;-78
2022/04/02 03:19:21;;;;;;;3.63;1.17;;;3.00;71.90;;;;;;5075915;28;20115;-79
2022/04/02 03:21:47;;;;;;;5.20;1.40;;;3.00;72.00;;;;;;5076811;28;20029;-73
2022/04/02 03:24:13;;;;;;;3.83;1.30;;;2.90;72.00;;;;;;5042360;28;20456;-73
2022/04/02 03:26:39;;;;;;;6.37;1.20;;;3.00;72.20;;;;;;5059032;28;20469;-73
2022/04/02 03:29:05;;;;;;;6.57;1.90;;;3.00;72.30;;;;;;5059077;28;20033;-73
2022/04/02 03:31:30;;;;;;;5.87;1.50;;;3.00;72.30;;;;;;5077041;28;20028;-74
2022/04/02 03:33:57;;;;;;;3.97;1.50;;;2.90;73.10;;;;;;5076829;28;20028;-74
2022/04/02 03:36:23;;;;;;;2.87;1.20;;;2.90;72.60;;;;;;5042558;28;20025;-74
2022/04/02 03:38:49;;;;;;;4.87;1.70;;;2.90;72.70;;;;;;5042176;28;20047;-73
2022/04/02 03:41:14;;;;;;;4.80;1.20;;;2.90;72.80;;;;;;5025708;28;20040;-73
2022/04/02 03:43:40;;;;;;;4.63;1.03;;;2.90;73.00;;;;;;5058756;28;20040;-73
2022/04/02 03:48:50;;;;;;;;;;;2.90;73.20;;;;;;5077427;28;20052;-74
2022/04/02 03:51:17;;;;;;;4.60;1.17;;;2.90;73.40;;;;;;5058066;28;19921;-74
2022/04/02 03:53:44;;;;;;;3.87;1.60;;;2.90;73.30;;;;;;5076483;28;20073;-74
2022/04/02 03:56:10;;;;;;;3.83;1.23;;;2.90;73.50;;;;;;5076565;28;20028;-74
2022/04/02 03:58:36;;;;;;;6.13;1.30;;;2.90;73.50;;;;;;5041652;28;20465;-73
2022/04/02 04:01:02;;;;;;;4.70;1.67;;;2.80;73.60;;;;;;5076144;28;20050;-73
2022/04/02 04:03:28;;;;;;;7.57;1.50;;;2.80;73.70;;;;;;5076001;28;20472;-74
2022/04/02 04:05:53;;;;;;;5.43;1.27;;;2.90;73.80;;;;;;5058218;28;20409;-74
2022/04/02 04:08:19;;;;;;;3.93;1.40;;;2.80;73.60;;;;;;5058215;28;20150;-74
2022/04/02 04:10:44;;;;;;;5.50;1.60;;;2.80;73.60;;;;;;5075974;28;20053;-74
2022/04/02 04:13:10;;;;;;;3.67;1.50;;;2.80;73.70;;;;;;5076182;28;20032;-74
2022/04/02 04:15:35;;;;;;;3.13;1.10;;;2.80;73.70;;;;;;5057906;28;20083;-79
2022/04/02 04:18:01;;;;;;;4.53;1.40;;;2.80;73.70;;;;;;5057773;28;20031;-79
2022/04/02 04:20:27;;;;;;;3.80;1.40;;;2.80;73.80;;;;;;5075689;28;20074;-79
2022/04/02 04:22:53;;;;;;;4.27;1.33;;;2.80;73.90;;;;;;5040996;28;20439;-80
2022/04/02 04:25:18;;;;;;;3.87;1.40;;;2.80;73.80;;;;;;5057551;28;20017;-79
2022/04/02 04:27:44;;;;;;;5.73;1.30;;;2.80;73.80;;;;;;5075852;28;20033;-80
2022/04/02 04:30:10;;;;;;;7.60;2.40;;;2.80;73.90;;;;;;5057196;28;20024;-79
2022/04/02 04:32:36;;;;;;;4.40;1.33;;;2.80;74.00;;;;;;5075698;28;20024;-80
2022/04/02 04:35:02;;;;;;;4.80;1.37;;;2.80;73.90;;;;;;5041025;28;20362;-80
2022/04/02 04:37:28;;;;;;;4.67;1.57;;;2.80;74.00;;;;;;5075580;28;20025;-79
2022/04/02 04:39:53;;;;;;;7.00;1.40;;;2.80;74.40;;;;;;5075337;28;20389;-79
2022/04/02 04:42:21;;;;;;;3.87;1.47;;;2.80;74.20;;;;;;5057460;28;20029;-79
2022/04/02 04:44:46;;;;;;;4.13;1.27;;;2.80;74.10;;;;;;5075225;28;20035;-80
2022/04/02 04:47:12;;;;;;;4.43;1.27;;;2.70;74.10;;;;;;5040655;28;20021;-80
2022/04/02 04:49:38;;;;;;;6.30;1.47;;;2.70;74.10;;;;;;5075332;28;20017;-80
2022/04/02 04:52:04;;;;;;;4.33;1.20;;;2.70;74.20;;;;;;5056851;28;20302;-80
2022/04/02 04:54:29;;;;;;;4.80;1.47;;;2.70;74.90;;;;;;5074708;28;20495;-80
2022/04/02 04:56:55;;;;;;;3.63;1.50;;;2.70;74.90;;;;;;5056984;28;20040;-79
2022/04/02 04:59:21;;;;;;;3.93;1.40;;;2.70;74.50;;;;;;5056883;28;20044;-79
2022/04/02 05:01:47;;;;;;;5.47;1.30;;;2.70;74.90;;;;;;5074807;28;20388;-79
2022/04/02 05:04:13;;;;;;;3.20;1.23;;;2.70;74.80;;;;;;5056746;28;20032;-81
2022/04/02 05:06:40;;;;;;;4.63;1.67;;;2.70;74.80;;;;;;5074713;28;20021;-79
2022/04/02 05:09:06;;;;;;;4.37;1.50;;;2.70;74.70;;;;;;5074752;28;20031;-79
2022/04/02 05:11:32;;;;;;;6.03;1.43;;;2.70;74.60;;;;;;5056895;28;20497;-80
2022/04/02 05:13:57;;;;;;;4.83;1.20;;;2.70;74.70;;;;;;5074642;28;20028;-80
2022/04/02 05:16:24;;;;;;;3.80;1.30;;;2.80;74.70;;;;;;5056640;28;20414;-81
2022/04/02 05:18:50;;;;;;;4.37;1.40;;;2.70;74.60;;;;;;5074554;28;20025;-79
2022/04/02 05:21:16;;;;;;;5.57;1.70;;;2.80;74.70;;;;;;5074386;28;20173;-79
2022/04/02 05:23:42;;;;;;;5.87;1.57;;;2.80;74.70;;;;;;5074709;28;20112;-80
2022/04/02 05:26:08;;;;;;;4.03;1.20;;;2.80;74.80;;;;;;5040475;28;20025;-80
2022/04/02 05:28:33;;;;;;;5.10;1.37;;;2.80;74.90;;;;;;5056561;28;20530;-79
2022/04/02 05:30:59;;;;;;;5.30;1.90;;;2.80;75.00;;;;;;5074539;28;20090;-79
2022/04/02 05:33:25;;;;;;;7.23;1.67;;;2.80;74.90;;;;;;5074138;28;20035;-80
2022/04/02 05:35:51;;;;;;;3.63;1.33;;;2.80;75.20;;;;;;5039504;28;20074;-79
2022/04/02 05:38:16;;;;;;;7.07;2.00;;;2.80;75.20;;;;;;5074231;28;20508;-80
2022/04/02 05:40:42;;;;;;;4.47;1.83;;;2.80;75.30;;;;;;5073336;28;20044;-79
2022/04/02 05:43:08;;;;;;;4.77;1.37;;;2.80;75.30;;;;;;5073970;28;20507;-80
2022/04/02 05:45:34;;;;;;;4.07;1.60;;;2.80;75.40;;;;;;5056209;28;20040;-80
2022/04/02 05:48:00;;;;;;;4.87;1.47;;;2.70;75.50;;;;;;5055787;28;20044;-79
2022/04/02 05:50:26;;;;;;;4.53;1.60;;;2.70;75.70;;;;;;5055757;28;20013;-80
2022/04/02 05:52:53;;;;;;;5.37;1.77;;;2.70;75.80;;;;;;5073509;28;20077;-79
2022/04/02 05:55:19;;;;;;;6.70;2.10;;;2.70;75.90;;;;;;5059250;28;20107;-80
2022/04/02 05:57:46;;;;;;;4.47;1.67;;;2.70;76.00;;;;;;5081538;28;20155;-79
2022/04/02 06:00:13;;;;;;;5.40;1.50;;;2.70;76.10;;;;;;5073844;28;20020;-79
2022/04/02 06:02:39;;;;;;;6.00;2.00;;;2.70;76.20;;;;;;5060894;28;20028;-79
2022/04/02 06:05:07;;;;;;;5.03;1.67;;;2.70;76.90;;;;;;5079793;28;20380;-78
2022/04/02 06:07:33;;;;;;;5.07;1.90;;;2.70;76.50;;;;;;5075518;28;20020;-79
2022/04/02 06:10:02;;;;;;;5.03;1.80;;;2.70;76.70;;;;;;5092988;28;20129;-79
2022/04/02 06:12:31;;;;;;;5.37;1.50;;;2.70;76.70;;;;;;5075559;28;20058;-79
2022/04/02 06:14:57;;;;;;;3.57;1.63;;;2.70;76.70;;;;;;5093830;28;20383;-80
2022/04/02 06:17:23;;;;;;;8.80;2.93;;;2.70;77.00;;;;;;5093683;28;20162;-79
2022/04/02 06:19:48;;;;;;;8.53;1.90;;;2.70;77.10;;;;;;5058844;28;20059;-80
2022/04/02 06:22:14;;;;;;;5.37;1.93;;;2.70;77.00;;;;;;5042095;28;20434;-80
2022/04/02 06:24:40;;;;;;;5.13;1.70;;;2.70;77.20;;;;;;5057001;28;20025;-80
2022/04/02 06:27:06;;;;;;;6.37;2.00;;;2.70;77.40;;;;;;5075462;28;20027;-80
2022/04/02 06:29:31;;;;;;;4.80;2.07;;;2.80;77.30;;;;;;5071850;28;20032;-80
2022/04/02 06:31:57;;;;;;;6.00;2.07;;;2.80;77.40;;;;;;5075435;28;20025;-80
2022/04/02 06:34:23;;;;;;;7.77;1.93;;;2.80;77.30;;;;;;5073135;28;20025;-80
2022/04/02 06:36:49;;;;;;;6.27;1.97;;;2.90;77.40;;;;;;5040850;28;20036;-79
2022/04/02 06:39:14;;;;;;;5.50;1.80;;;2.90;77.50;;;;;;5093168;28;20031;-79
2022/04/02 06:41:40;;;;;;;4.40;1.67;;;2.90;77.50;;;;;;5093303;28;20024;-80
2022/04/02 06:44:09;;;;;;;6.20;2.00;;;3.00;77.50;;;;;;5058480;28;20032;-79
2022/04/02 06:46:35;;;;;;;7.27;2.00;;;3.10;77.50;;;;;;5093257;28;20026;-81
2022/04/02 06:49:01;;;;;;;5.13;1.80;;;3.10;77.40;;;;;;5093308;28;20078;-80
2022/04/02 06:51:26;;;;;;;7.97;2.07;;;3.20;77.50;;;;;;5054956;28;20040;-79
2022/04/02 06:53:53;;;;;;;7.03;1.90;;;3.30;77.40;;;;;;5055897;28;20029;-82
2022/04/02 06:56:19;;;;;;;7.20;1.97;;;3.30;77.50;;;;;;5057305;28;20029;-81
2022/04/02 06:58:44;;;;;;;5.87;1.97;;;3.30;77.20;;;;;;5055983;28;20040;-80
2022/04/02 07:01:10;;;;;;;6.80;1.90;;;3.40;77.20;;;;;;5057074;28;20481;-80
2022/04/02 07:03:36;;;;;;;7.30;2.40;;;3.50;77.30;;;;;;5055881;28;20504;-83
2022/04/02 07:06:02;;;;;;;5.00;1.70;;;3.50;77.20;;;;;;5055951;28;20492;-80
2022/04/02 07:08:28;;;;;;;5.70;2.10;;;3.60;77.10;;;;;;5055802;28;20416;-81
2022/04/02 07:10:53;;;;;;;8.37;2.20;;;3.70;77.30;;;;;;5022669;28;20029;-80
2022/04/02 07:13:19;;;;;;;8.77;2.20;;;3.70;77.00;;;;;;5055653;28;20056;-80
2022/04/02 07:15:45;;;;;;;5.17;2.03;;;3.70;76.80;;;;;;5055409;28;20033;-78
2022/04/02 07:18:12;;;;;;;5.67;2.20;;;3.80;76.80;;;;;;5073570;28;20039;-78
2022/04/02 07:20:39;;;;;;;4.53;1.77;;;3.80;76.70;;;;;;5076732;28;20025;-77
2022/04/02 07:23:09;;;;;;;8.03;2.23;;;3.90;76.70;;;;;;5076325;28;20033;-78
2022/04/02 07:25:39;;;;;;;4.80;2.00;;;3.90;76.60;;;;;;5071452;28;20028;-76
2022/04/02 07:28:07;;;;;;;4.13;1.67;;;4.00;76.80;;;;;;5061450;28;20028;-79
2022/04/02 07:30:34;;;;;;;5.50;1.90;;;4.10;76.80;;;;;;5054939;28;20075;-78
2022/04/02 07:33:00;;;;;;;6.70;2.50;;;4.20;76.90;;;;;;5060890;28;20055;-81
2022/04/02 07:35:32;;;;;;;5.47;2.20;;;4.20;76.60;;;;;;5056513;28;20082;-85
2022/04/02 07:38:20;;;;;;;7.47;2.50;;;4.30;76.40;;;;;;5055212;28;20063;-83
2022/04/02 07:41:15;;;;;;;7.00;2.70;;;4.30;75.90;;;;;;5055102;28;20104;-78
2022/04/02 07:43:43;;;;;;;;;;;4.30;75.70;;;;;;4986099;28;20038;-76
2022/04/02 07:46:20;;;;;;;7.53;2.53;;;4.30;75.70;;;;;;5055061;28;19991;-85
2022/04/02 07:48:48;;;;;;;5.43;2.03;;;4.40;75.60;;;;;;5055045;28;20045;-79
2022/04/02 07:51:16;;;;;;;5.87;2.80;;;4.40;75.50;;;;;;5061387;28;20120;-80
2022/04/02 07:53:53;;;;;;;6.77;2.40;;;4.40;75.20;;;;;;5076275;28;20107;-79
2022/04/02 07:56:27;;;;;;;7.40;2.20;;;4.30;75.60;;;;;;5058212;28;20107;-78
2022/04/02 07:59:06;;;;;;;7.97;2.95;;;4.30;75.00;;;;;;5078089;28;20480;-81
2022/04/02 08:01:32;;;;;;;5.83;2.53;;;4.30;75.20;;;;;;5057674;28;20021;-83
2022/04/02 08:04:02;;;;;;;7.70;2.27;;;4.40;75.50;;;;;;5057203;28;20028;-77
2022/04/02 08:06:31;;;;;;;9.03;3.10;;;4.40;75.20;;;;;;5057903;28;20094;-78
2022/04/02 08:09:01;;;;;;;6.17;1.90;;;4.40;75.30;;;;;;5075863;28;20028;-76
2022/04/02 08:11:27;;;;;;;6.30;2.53;;;4.50;75.50;;;;;;5041037;28;20036;-78
2022/04/02 08:13:54;;;;;;;8.47;2.23;;;4.60;75.60;;;;;;5075424;28;20431;-76
2022/04/02 08:16:20;;;;;;;6.83;2.17;;;4.70;75.70;;;;;;5041033;28;20024;-78
2022/04/02 08:18:47;;;;;;;5.90;2.10;;;5.00;75.70;;;;;;5075813;28;20112;-76
2022/04/02 08:21:14;;;;;;;6.47;2.67;;;4.90;75.50;;;;;;5076056;28;20063;-78
2022/04/02 08:23:40;;;;;;;7.03;2.30;;;5.10;75.50;;;;;;5053452;28;20470;-78
2022/04/02 08:26:30;;;;;;;7.47;2.80;;;5.10;75.40;;;;;;5075823;28;20020;-78
2022/04/02 08:29:15;;;;;;;5.37;1.97;;;5.20;75.30;;;;;;5057371;28;20114;-78
2022/04/02 08:31:50;;;;;;;6.87;1.87;;;5.40;75.00;;;;;;5057079;28;20020;-78
2022/04/02 08:34:33;;;;;;;7.47;2.37;;;5.50;74.90;;;;;;5074821;28;20028;-77
2022/04/02 08:37:17;;;;;;;6.07;2.23;;;5.60;74.20;;;;;;5057288;28;20124;-77
2022/04/02 08:40:28;;;;;;;7.05;2.42;;;5.70;74.00;;;;;;5073808;28;20026;-78
2022/04/02 08:43:06;;;;;;;5.43;2.30;;;5.80;73.90;;;;;;5074852;28;20036;-78
2022/04/02 08:45:33;;;;;;;5.03;2.17;;;5.80;73.60;;;;;;5056894;28;20111;-78
2022/04/02 08:48:22;;;;;;;8.20;2.80;;;5.90;73.00;;;;;;5056841;28;20607;-79
2022/04/02 08:51:15;;;;;;;5.90;2.50;;;5.90;72.60;;;;;;5074820;28;20384;-79
2022/04/02 08:54:04;;;;;;;5.60;2.20;;;6.00;72.70;;;;;;5044666;28;20048;-78
2022/04/02 08:56:34;;;;;;;5.73;2.23;;;6.20;72.90;;;;;;5036986;28;20029;-78
2022/04/02 08:59:06;;;;;;;8.67;2.57;;;6.30;73.10;;;;;;5053645;28;20385;-78
2022/04/02 09:01:34;;;;;;;6.57;3.10;;;6.50;72.70;;;;;;5054513;28;20029;-78
2022/04/02 09:04:37;;;;;;;7.43;3.00;;;6.70;72.20;;;;;;5053249;28;20071;-78
2022/04/02 09:07:26;;;;;;;7.17;2.60;;;6.80;71.60;;;;;;5053236;28;20401;-78
2022/04/02 09:10:13;;;;;;;6.43;2.57;;;6.90;70.90;;;;;;5060131;28;20020;-82
2022/04/02 09:13:16;;;;;;;6.07;1.70;;;6.90;70.70;;;;;;5074759;28;20032;-79
2022/04/02 09:16:06;;;;;;;5.03;2.10;;;7.00;70.60;;;;;;5071946;28;20032;-78
2022/04/02 09:18:36;;;;;;;4.07;1.80;;;7.10;70.30;;;;;;5073084;28;20028;-80
2022/04/02 09:21:13;;;;;;;5.33;1.93;;;7.20;68.50;;;;;;5072982;28;20480;-78
2022/04/02 09:23:43;;;;;;;7.87;2.30;;;7.30;67.70;;;;;;5072770;28;20033;-78
2022/04/02 09:26:18;;;;;;;6.43;2.03;;;7.30;66.70;;;;;;5074150;28;20476;-77
2022/04/02 09:29:02;;;;;;;6.83;2.77;;;7.30;66.90;;;;;;5061853;28;20171;-79
2022/04/02 09:31:54;;;;;;;5.80;1.98;;;7.20;68.70;;;;;;5052413;28;20416;-77
2022/04/02 09:34:45;;;;;;;8.27;2.57;;;7.30;69.10;;;;;;5053925;28;20017;-78
2022/04/02 09:37:29;;;;;;;8.20;2.40;;;7.30;67.90;;;;;;5053874;28;20041;-76
2022/04/02 09:40:04;;;;;;;5.38;2.22;;;7.10;66.90;;;;;;5054037;28;20420;-77
2022/04/02 09:42:56;;;;;;;6.30;2.20;;;7.10;65.40;;;;;;5054080;28;20087;-80
2022/04/02 09:45:22;;;;;;;6.03;2.10;;;7.00;65.40;;;;;;5052639;28;20123;-80
2022/04/02 09:47:48;;;;;;;4.20;1.40;;;6.90;66.60;;;;;;5053900;28;20029;-79
2022/04/02 09:50:25;;;;;;;8.17;2.23;;;7.10;67.80;;;;;;5053856;28;20035;-77
2022/04/02 09:52:57;;;;;;;3.63;1.70;;;7.10;67.60;;;;;;5070075;28;20047;-77
2022/04/02 09:56:03;;;;;;;7.93;2.00;;;7.40;66.90;;;;;;5073569;28;20052;-78
2022/04/02 09:59:17;;;;;;;5.00;1.73;;;7.70;66.50;;;;;;5027206;28;20481;-77
2022/04/02 10:02:03;;;;;;;7.30;1.83;;;7.90;63.60;;;;;;4984743;28;20043;-77
2022/04/02 10:04:34;;;;;;;4.07;1.50;;;7.90;62.20;;;;;;5057266;28;20056;-77
2022/04/02 10:07:03;;;;;;;6.07;1.47;;;7.90;62.50;;;;;;5081415;28;20034;-77
2022/04/02 10:09:32;;;;;;;3.73;1.60;;;7.90;62.20;;;;;;5064164;28;20431;-78
2022/04/02 10:12:00;;;;;;;3.10;1.23;;;8.00;63.00;;;;;;5063130;28;20028;-77
2022/04/02 10:14:30;;;;;;;3.97;1.00;;;8.20;62.40;;;;;;5072267;28;20043;-77
2022/04/02 10:17:01;;;;;;;2.73;1.00;;;8.30;61.00;;;;;;5080568;28;20111;-77
2022/04/02 10:19:35;;;;;;;3.10;1.27;;;8.20;58.90;;;;;;5074582;28;20362;-78
2022/04/02 10:22:09;;;;;;;2.83;1.05;;;8.20;57.90;;;;;;5055565;28;20028;-78
2022/04/02 10:24:39;;;;;;;6.47;1.27;;;8.20;56.80;;;;;;5055390;28;20131;-78
2022/04/02 10:27:07;;;;;;;5.90;1.30;;;8.10;56.50;;;;;;5055148;28;20048;-82
2022/04/02 10:29:52;;;;;;;3.47;1.20;;;8.10;55.90;;;;;;5073515;28;20413;-77
2022/04/02 10:35:46;;;;;;;3.30;1.20;;;8.40;55.00;;;;;;5011333;28;20728;-77
2022/04/02 10:38:33;;;;;;;3.90;1.00;;;8.40;55.10;;;;;;5011778;28;20032;-78
2022/04/02 10:41:03;;;;;;;3.97;0.93;;;8.40;54.90;;;;;;5059560;28;20033;-77
2022/04/02 10:43:30;;;;;;;3.23;1.03;;;8.50;54.40;;;;;;5055362;28;20036;-78
2022/04/02 10:46:03;;;;;;;2.73;0.90;;;8.90;55.90;;;;;;5055350;28;20024;-77
2022/04/02 10:48:37;;;;;;;2.45;0.75;;;9.80;56.80;;;;;;5073202;28;20020;-78
2022/04/02 10:51:03;;;;;;;4.35;1.00;;;10.70;57.20;;;;;;5055400;28;20035;-77
2022/04/02 10:53:32;;;;;;;4.15;0.88;;;11.50;55.50;;;;;;5073003;28;20036;-81
2022/04/02 10:56:01;;;;;;;2.40;0.60;;;12.00;54.00;;;;;;5073198;28;20434;-78
2022/04/02 10:58:37;;;;;;;2.42;0.85;;;12.00;50.70;;;;;;5038930;28;20047;-78
2022/04/02 11:01:05;;;;;;;4.30;0.98;;;11.70;48.20;;;;;;5055153;28;20016;-78
2022/04/02 11:03:42;;;;;;;2.63;0.90;;;11.30;47.60;;;;;;5065448;28;20035;-77
2022/04/02 11:06:08;;;;;;;2.95;0.80;;;11.00;48.00;;;;;;5073207;28;20484;-77
2022/04/02 11:08:34;;;;;;;2.03;0.70;;;10.80;49.10;;;;;;5073086;28;20025;-78
2022/04/02 11:11:23;;;;;;;2.42;0.50;;;10.80;50.30;;;;;;5077922;28;20031;-79
2022/04/02 11:14:00;;;;;;;2.75;0.60;;;10.80;51.10;;;;;;5092988;28;20108;-77
2022/04/02 11:16:40;;;;;;;2.65;0.70;;;10.90;51.60;;;;;;5093435;28;20028;-78
2022/04/02 11:22:04;;;;;;;2.35;0.65;;;10.70;51.90;;;;;;5077868;28;20093;-80
2022/04/02 11:24:53;;;;;;;4.70;0.70;;;10.70;52.50;;;;;;5074604;28;20056;-78
2022/04/02 11:27:23;;;;;;;1.75;0.50;;;10.70;53.20;;;;;;5054526;28;20429;-78
2022/04/02 11:29:51;;;;;;;2.75;0.63;;;10.80;53.00;;;;;;5069736;28;20023;-78
2022/04/02 11:32:24;;;;;;;3.58;1.15;;;10.80;52.70;;;;;;5075085;28;20016;-77
2022/04/02 11:34:51;;;;;;;3.37;0.70;;;10.70;50.90;;;;;;5092959;28;20065;-83
2022/04/02 11:37:24;;;;;;;3.35;1.08;;;10.50;48.90;;;;;;5083937;28;20098;-79
2022/04/02 11:39:53;;;;;;;2.28;0.70;;;10.30;49.30;;;;;;5085562;28;20101;-77
2022/04/02 11:42:25;;;;;;;4.67;1.00;;;10.10;49.10;;;;;;5076067;28;20392;-78
2022/04/02 11:44:52;;;;;;;3.17;0.80;;;10.00;49.50;;;;;;5076190;28;20021;-79
2022/04/02 11:47:29;;;;;;;3.43;0.93;;;10.00;48.70;;;;;;5058491;28;20012;-78
2022/04/02 11:50:04;;;;;;;2.37;0.83;;;9.90;49.00;;;;;;5070457;28;20373;-78
2022/04/02 11:52:52;;;;;;;3.10;1.00;;;9.70;48.90;;;;;;5075825;28;20051;-78
2022/04/02 11:55:18;;;;;;;5.50;1.13;;;9.70;48.60;;;;;;5075076;28;20021;-81
2022/04/02 11:58:09;;;;;;;3.20;0.90;;;9.60;50.10;;;;;;5041432;28;20025;-77
2022/04/02 12:00:40;;;;;;;4.17;1.07;;;9.40;50.40;;;;;;5095475;28;20028;-80
2022/04/02 12:03:21;;;;;;;4.43;1.10;;;9.30;50.00;;;;;;5077853;28;20028;-78
2022/04/02 12:05:48;;;;;;;6.43;1.20;;;9.40;50.20;;;;;;5077778;28;20020;-80
2022/04/02 12:08:30;;;;;;;4.17;0.73;;;9.40;49.90;;;;;;5081127;28;20025;-80
2022/04/02 12:10:57;;;;;;;3.80;1.20;;;9.40;50.10;;;;;;5066926;28;20485;-80
2022/04/02 12:13:23;;;;;;;6.00;1.00;;;9.40;50.10;;;;;;5077971;28;20032;-76
2022/04/02 12:16:01;;;;;;;2.77;1.00;;;9.30;50.30;;;;;;5044816;28;20170;-78
2022/04/02 12:18:28;;;;;;;3.80;0.90;;;9.20;50.10;;;;;;5095906;28;20040;-76
2022/04/02 12:21:02;;;;;;;3.93;1.10;;;9.20;50.90;;;;;;5061055;28;20118;-76
2022/04/02 12:23:29;;;;;;;2.33;0.93;;;9.20;51.30;;;;;;5077921;28;20072;-78
2022/04/02 12:25:57;;;;;;;4.17;1.17;;;9.20;51.00;;;;;;5061200;28;20458;-74
2022/04/02 12:28:24;;;;;;;3.07;1.07;;;9.30;51.00;;;;;;5095709;28;20484;-78
2022/04/02 12:30:52;;;;;;;3.43;1.00;;;9.50;50.90;;;;;;5077715;28;20082;-74
2022/04/02 12:33:22;;;;;;;2.93;0.90;;;9.60;51.70;;;;;;5095732;28;20046;-75
2022/04/02 12:35:58;;;;;;;4.40;1.00;;;9.70;52.30;;;;;;5077997;28;20453;-77
2022/04/02 12:38:43;;;;;;;4.90;1.00;;;9.40;52.40;;;;;;5077848;28;20111;-74
2022/04/02 12:41:21;;;;;;;3.27;1.10;;;9.30;51.80;;;;;;5041078;28;20040;-78
2022/04/02 12:43:48;;;;;;;7.20;1.30;;;8.90;52.30;;;;;;5040329;28;20029;-77
2022/04/02 12:46:25;;;;;;;3.13;1.00;;;8.80;52.60;;;;;;5040668;28;20024;-76
2022/04/02 12:48:51;;;;;;;5.50;0.97;;;8.60;52.50;;;;;;5070195;28;20024;-78
2022/04/02 12:51:18;;;;;;;5.13;0.90;;;8.50;54.40;;;;;;5076595;28;20456;-78
2022/04/02 12:53:49;;;;;;;3.37;1.47;;;8.40;53.70;;;;;;5077186;28;20111;-82
2022/04/02 12:56:25;;;;;;;4.53;1.00;;;8.30;54.10;;;;;;5077154;28;20032;-79
2022/04/02 12:58:52;;;;;;;5.47;1.13;;;8.30;56.20;;;;;;5083587;28;20037;-87
2022/04/02 13:01:21;;;;;;;3.43;1.10;;;8.40;56.50;;;;;;5057188;28;20483;-79
2022/04/02 13:03:59;;;;;;;5.37;0.90;;;9.00;57.00;;;;;;5092154;28;20028;-81
2022/04/02 13:06:27;;;;;;;3.03;0.97;;;9.70;57.10;;;;;;5095325;28;20077;-82
2022/04/02 13:09:07;;;;;;;5.60;1.10;;;10.30;55.40;;;;;;5089881;28;20103;-79
2022/04/02 13:11:54;;;;;;;2.05;0.70;;;11.10;54.70;;;;;;5074001;28;20436;-81
2022/04/02 13:14:21;;;;;;;4.55;0.90;;;12.00;53.20;;;;;;5056743;28;20100;-80
2022/04/02 13:17:08;;;;;;;5.53;0.77;;;12.70;51.30;;;;;;5060001;28;20021;-80
2022/04/02 13:22:40;;;;;;;4.32;0.90;;;14.00;48.60;;;;;;5074381;28;20103;-80
2022/04/02 13:25:18;;;;;;;1.05;0.47;;;14.60;47.80;;;;;;5074334;28;20029;-81
2022/04/02 13:28:02;;;;;;;2.13;0.50;;;15.10;45.60;;;;;;5056020;28;20109;-77
2022/04/02 13:30:42;;;;;;;1.95;0.70;;;15.40;44.70;;;;;;5074322;28;20385;-78